Terminal Aerodrome Forecast
Issued by NWS

Home | Current Version | Previous Version | Text Only | Print | Product List | Glossary On
Versions: 1 2 3 4 5 6 7 8 9 10 11 12 13 14 15 16 17 18 19 20 21 22 23 24
000
FTUS41 KCTP 180554
TAFAOO
TAF
KAOO 180554Z 1806/1906 23006KT P6SM SKC
     FM180800 27011G16KT P6SM SCT100
     FM181400 26014G21KT P6SM SCT250 WS016/29051KT=

USA.gov is the U.S. government's official web portal to all federal, state and local government web resources and services.